createdAt,value
2023-11-07T00:00:12.516Z,5.83
2023-11-07T00:03:15.882Z,4.87
2023-11-07T00:06:17.958Z,11.23
2023-11-07T00:09:20.244Z,3.07
2023-11-07T00:12:22.649Z,8.93
2023-11-07T00:15:26.736Z,4.80
2023-11-07T00:18:37.434Z,5.03
2023-11-07T00:21:43.335Z,7.53
2023-11-07T00:24:45.384Z,7.00
2023-11-07T00:27:47.743Z,8.70
2023-11-07T00:30:53.546Z,6.80
2023-11-07T00:33:56.269Z,7.57
2023-11-07T00:37:05.776Z,2.83
2023-11-07T00:40:11.702Z,5.87
2023-11-07T00:43:14.124Z,6.53
2023-11-07T00:46:16.202Z,7.00
2023-11-07T00:49:19.685Z,3.77
2023-11-07T00:52:24.300Z,4.70
2023-11-07T00:55:26.872Z,8.27
2023-11-07T00:58:30.700Z,6.00
2023-11-07T01:01:45.741Z,7.60
2023-11-07T01:04:49.742Z,4.47
2023-11-07T01:07:53.259Z,6.60
2023-11-07T01:10:59.181Z,7.47
2023-11-07T01:14:02.060Z,5.47
2023-11-07T01:17:04.648Z,8.07
2023-11-07T01:20:21.143Z,5.27
2023-11-07T01:23:23.049Z,5.80
2023-11-07T01:26:33.116Z,5.17
2023-11-07T01:29:37.259Z,7.13
2023-11-07T01:32:45.615Z,4.93
2023-11-07T01:35:48.031Z,6.13
2023-11-07T01:38:52.572Z,5.20
2023-11-07T01:41:55.614Z,5.13
2023-11-07T01:44:57.826Z,10.33
2023-11-07T01:48:00.282Z,4.93
2023-11-07T01:51:02.753Z,4.00
2023-11-07T01:54:05.422Z,5.13
2023-11-07T01:57:09.658Z,5.07
2023-11-07T02:00:15.292Z,7.33
2023-11-07T02:03:23.533Z,6.10
2023-11-07T02:06:26.026Z,3.53
2023-11-07T02:09:47.180Z,3.83
2023-11-07T02:12:50.701Z,10.87
2023-11-07T02:15:55.980Z,3.43
2023-11-07T02:18:58.621Z,7.50
2023-11-07T02:22:23.011Z,6.23
2023-11-07T02:25:30.849Z,6.43
2023-11-07T02:28:34.227Z,6.90
2023-11-07T02:31:39.180Z,9.80
2023-11-07T02:34:41.573Z,5.93
2023-11-07T02:37:50.217Z,11.07
2023-11-07T02:40:53.889Z,8.80
2023-11-07T02:44:12.139Z,9.87
2023-11-07T02:47:15.840Z,4.70
2023-11-07T02:50:22.549Z,6.03
2023-11-07T02:53:28.462Z,9.63
2023-11-07T02:56:33.442Z,6.80
2023-11-07T02:59:40.468Z,6.90
2023-11-07T03:02:44.909Z,5.30
2023-11-07T03:05:48.180Z,9.33
2023-11-07T03:09:06.062Z,5.73
2023-11-07T03:12:15.527Z,6.97
2023-11-07T03:15:17.826Z,5.17
2023-11-07T03:18:21.466Z,8.93
2023-11-07T03:21:24.784Z,5.10
2023-11-07T03:24:30.714Z,5.63
2023-11-07T03:27:34.220Z,7.03
2023-11-07T03:30:39.179Z,7.37
2023-11-07T03:33:41.520Z,10.20
2023-11-07T03:36:47.499Z,6.20
2023-11-07T03:39:51.181Z,7.07
2023-11-07T03:42:55.362Z,8.87
2023-11-07T03:45:58.379Z,8.63
2023-11-07T03:49:08.940Z,11.60
2023-11-07T03:52:13.579Z,7.73
2023-11-07T03:55:16.460Z,3.77
2023-11-07T03:58:25.262Z,7.30
2023-11-07T04:01:39.023Z,5.93
2023-11-07T04:04:48.309Z,5.80
2023-11-07T04:07:51.817Z,6.33
2023-11-07T04:10:56.627Z,5.47
2023-11-07T04:14:00.300Z,6.13
2023-11-07T04:17:08.940Z,6.80
2023-11-07T04:20:12.949Z,9.40
2023-11-07T04:23:28.459Z,7.57
2023-11-07T04:26:33.307Z,9.70
2023-11-07T04:29:39.200Z,6.93
2023-11-07T04:32:42.127Z,6.37
2023-11-07T04:35:47.852Z,9.60
2023-11-07T04:38:51.855Z,10.70
2023-11-07T04:42:03.368Z,9.30
2023-11-07T04:45:32.703Z,6.73
2023-11-07T04:48:36.495Z,11.00
2023-11-07T04:51:45.100Z,6.50
2023-11-07T04:54:48.620Z,14.57
2023-11-07T04:57:54.256Z,7.23
2023-11-07T05:00:56.639Z,9.03
2023-11-07T05:03:59.775Z,12.20
2023-11-07T05:07:03.346Z,10.00
2023-11-07T05:10:11.482Z,13.70
2023-11-07T05:13:15.838Z,10.13
2023-11-07T05:16:18.550Z,8.10
2023-11-07T05:19:24.244Z,7.47
2023-11-07T05:22:27.034Z,9.20
2023-11-07T05:25:29.753Z,9.30
2023-11-07T05:28:40.314Z,11.63
2023-11-07T05:31:44.155Z,9.40
2023-11-07T05:34:52.955Z,13.70
2023-11-07T05:37:57.754Z,11.93
2023-11-07T05:41:06.233Z,11.83
2023-11-07T05:44:08.634Z,11.83
2023-11-07T05:47:11.398Z,12.17
2023-11-07T05:50:14.134Z,15.50
2023-11-07T05:53:16.955Z,12.33
2023-11-07T05:56:21.116Z,16.17
2023-11-07T05:59:25.746Z,8.83
2023-11-07T06:02:30.366Z,6.97
2023-11-07T06:05:33.106Z,11.10
2023-11-07T06:08:37.005Z,11.50
2023-11-07T06:11:41.527Z,11.77
2023-11-07T06:14:46.085Z,10.30
2023-11-07T06:17:49.812Z,6.63
2023-11-07T06:20:52.794Z,12.33
2023-11-07T06:23:55.410Z,7.43
2023-11-07T06:26:57.683Z,9.93
2023-11-07T06:30:00.503Z,10.23
2023-11-07T06:33:04.255Z,7.70
2023-11-07T06:36:08.331Z,12.00
2023-11-07T06:39:12.052Z,12.33
2023-11-07T06:42:16.061Z,12.97
2023-11-07T06:45:23.652Z,13.73
2023-11-07T06:48:27.887Z,12.40
2023-11-07T06:51:40.147Z,13.80
2023-11-07T06:54:42.699Z,21.13
2023-11-07T06:57:44.714Z,16.40
2023-11-07T07:01:16.463Z,21.93
2023-11-07T07:04:19.248Z,12.60
2023-11-07T07:07:22.387Z,19.37
2023-11-07T07:10:26.750Z,30.93
2023-11-07T07:13:30.238Z,12.30
2023-11-07T07:16:33.834Z,12.57
2023-11-07T07:19:55.503Z,26.03
2023-11-07T07:22:59.036Z,10.93
2023-11-07T07:26:10.222Z,12.77
2023-11-07T07:29:18.051Z,14.07
2023-11-07T07:32:30.573Z,19.80
2023-11-07T07:35:34.377Z,11.60
2023-11-07T07:38:36.977Z,10.40
2023-11-07T07:42:12.345Z,10.20
2023-11-07T07:45:15.056Z,8.70
2023-11-07T07:48:19.207Z,8.33
2023-11-07T07:51:21.928Z,6.80
2023-11-07T07:54:43.365Z,12.18
2023-11-07T07:57:51.512Z,10.70
2023-11-07T08:00:54.222Z,8.82
2023-11-07T08:03:58.162Z,12.60
2023-11-07T08:07:03.659Z,9.02
2023-11-07T08:10:18.220Z,12.38
2023-11-07T08:13:21.429Z,9.27
2023-11-07T08:16:24.150Z,12.75
2023-11-07T08:19:26.572Z,8.52
2023-11-07T08:22:29.260Z,11.68
2023-11-07T08:25:31.989Z,11.18
2023-11-07T08:28:37.738Z,25.10
2023-11-07T08:31:42.060Z,14.15
2023-11-07T08:35:07.990Z,6.78
2023-11-07T08:38:16.299Z,23.13
2023-11-07T08:41:19.071Z,9.48
2023-11-07T08:44:50.400Z,7.15
2023-11-07T08:48:20.514Z,24.15
2023-11-07T08:51:23.661Z,48.03
2023-11-07T08:54:26.219Z,38.33
2023-11-07T08:57:30.222Z,13.02
2023-11-07T09:00:34.212Z,6.13
2023-11-07T09:03:38.110Z,15.45
2023-11-07T09:06:41.824Z,40.78
2023-11-07T09:10:12.780Z,47.53
2023-11-07T09:13:15.982Z,4.93
2023-11-07T09:16:19.820Z,8.43
2023-11-07T09:19:22.176Z,6.38
2023-11-07T09:22:26.868Z,3.65
2023-11-07T09:25:29.429Z,3.95
2023-11-07T09:28:31.884Z,3.55
2023-11-07T09:31:36.461Z,4.90
2023-11-07T09:34:47.820Z,3.80
2023-11-07T09:38:17.107Z,5.23
2023-11-07T09:41:20.540Z,4.07
2023-11-07T09:44:24.298Z,5.37
2023-11-07T09:47:30.446Z,5.30
2023-11-07T09:50:35.664Z,6.30
2023-11-07T09:53:41.580Z,8.90
2023-11-07T09:56:45.778Z,6.50
2023-11-07T09:59:56.674Z,4.60
2023-11-07T10:03:00.947Z,4.90
2023-11-07T10:06:04.024Z,3.53
2023-11-07T10:09:19.112Z,5.87
2023-11-07T10:12:23.371Z,5.33
2023-11-07T10:15:28.863Z,7.43
2023-11-07T10:18:46.334Z,5.60
2023-11-07T10:21:52.976Z,3.93
2023-11-07T10:25:00.939Z,5.03
2023-11-07T10:28:11.527Z,7.57
2023-11-07T10:31:25.105Z,3.73
2023-11-07T10:34:28.796Z,6.27
2023-11-07T10:37:38.226Z,6.70
2023-11-07T10:40:45.911Z,7.63
2023-11-07T10:44:16.290Z,4.90
2023-11-07T10:47:22.224Z,6.73
2023-11-07T10:50:27.511Z,5.80
2023-11-07T10:53:35.181Z,9.33
2023-11-07T10:56:42.060Z,8.87
2023-11-07T10:59:47.220Z,8.47
2023-11-07T11:02:54.237Z,4.57
2023-11-07T11:05:58.132Z,4.20
2023-11-07T11:09:08.335Z,8.33
2023-11-07T11:12:13.764Z,7.43
2023-11-07T11:15:20.019Z,5.93
2023-11-07T11:18:33.119Z,9.40
2023-11-07T11:21:53.009Z,3.97
2023-11-07T11:25:18.250Z,8.27
2023-11-07T11:29:01.671Z,6.70
2023-11-07T11:32:25.110Z,5.83
2023-11-07T11:35:32.944Z,6.23
2023-11-07T11:38:40.164Z,9.13
2023-11-07T11:42:14.245Z,6.20
2023-11-07T11:45:40.407Z,6.77
2023-11-07T11:48:53.473Z,6.87
2023-11-07T11:51:58.913Z,13.27
2023-11-07T11:55:09.065Z,7.03
2023-11-07T11:58:17.723Z,7.57
2023-11-07T12:01:22.751Z,8.33
2023-11-07T12:04:26.746Z,7.67
2023-11-07T12:07:37.768Z,7.10
2023-11-07T12:10:55.828Z,7.60
2023-11-07T12:14:02.218Z,6.60
2023-11-07T12:17:05.582Z,3.47
2023-11-07T12:20:13.307Z,5.30
2023-11-07T12:23:17.197Z,6.30
2023-11-07T12:26:22.547Z,7.43
2023-11-07T12:29:31.337Z,6.67
2023-11-07T12:32:33.912Z,8.23
2023-11-07T12:35:40.904Z,7.50
2023-11-07T12:38:44.798Z,5.17
2023-11-07T12:41:48.834Z,9.27
2023-11-07T12:44:52.790Z,6.60
2023-11-07T12:47:58.992Z,6.63
2023-11-07T12:51:01.781Z,8.47
2023-11-07T12:54:06.617Z,7.03
2023-11-07T12:57:09.233Z,7.10
2023-11-07T13:00:13.163Z,8.87
2023-11-07T13:03:20.905Z,8.20
2023-11-07T13:06:24.870Z,8.50
2023-11-07T13:09:31.479Z,6.73
2023-11-07T13:12:37.435Z,10.83
2023-11-07T13:15:46.229Z,6.63
2023-11-07T13:18:50.129Z,7.50
2023-11-07T13:21:53.262Z,8.73
2023-11-07T13:24:56.619Z,9.20
2023-11-07T13:28:01.425Z,5.23
2023-11-07T13:31:06.728Z,8.90
2023-11-07T13:34:09.762Z,9.40
2023-11-07T13:37:12.307Z,7.87
2023-11-07T13:40:16.155Z,8.37
2023-11-07T13:43:45.121Z,8.53
2023-11-07T13:46:51.341Z,9.73
2023-11-07T13:49:57.899Z,7.00
2023-11-07T13:53:00.459Z,10.33
2023-11-07T13:56:04.943Z,8.47
2023-11-07T13:59:08.039Z,8.93
2023-11-07T14:02:12.143Z,9.33
2023-11-07T14:05:14.916Z,11.73
2023-11-07T14:08:18.538Z,9.17
2023-11-07T14:11:22.380Z,10.60
2023-11-07T14:14:26.064Z,9.27
2023-11-07T14:17:30.410Z,14.00
2023-11-07T14:20:33.742Z,14.67
2023-11-07T14:23:37.277Z,10.93
2023-11-07T14:26:39.829Z,8.00
2023-11-07T14:30:01.400Z,14.63
2023-11-07T14:33:05.890Z,8.93
2023-11-07T14:36:11.891Z,9.40
2023-11-07T14:39:17.308Z,13.13
2023-11-07T14:42:19.982Z,14.00
2023-11-07T14:45:24.969Z,8.40
2023-11-07T14:48:27.623Z,14.07
2023-11-07T14:51:30.450Z,9.17
2023-11-07T14:54:36.492Z,24.90
2023-11-07T14:57:44.880Z,14.27
2023-11-07T15:00:49.418Z,9.50
2023-11-07T15:03:52.529Z,10.30
2023-11-07T15:06:55.584Z,13.73
2023-11-07T15:09:59.020Z,14.43
2023-11-07T15:13:02.376Z,15.77
2023-11-07T15:16:07.016Z,13.73
2023-11-07T15:19:10.913Z,12.90
2023-11-07T15:22:15.510Z,12.63
2023-11-07T15:25:22.698Z,10.20
2023-11-07T15:28:25.270Z,17.17
2023-11-07T15:31:28.450Z,13.87
2023-11-07T15:34:37.872Z,16.20
2023-11-07T15:37:44.022Z,13.17
2023-11-07T15:40:46.859Z,11.73
2023-11-07T15:43:49.422Z,16.20
2023-11-07T15:46:54.257Z,11.77
2023-11-07T15:49:57.905Z,14.63
2023-11-07T15:53:07.660Z,15.23
2023-11-07T15:56:13.581Z,17.50
2023-11-07T15:59:22.700Z,23.70
2023-11-07T16:02:28.510Z,9.83
2023-11-07T16:05:34.674Z,12.23
2023-11-07T16:08:37.421Z,12.30
2023-11-07T16:11:39.989Z,11.50
2023-11-07T16:14:43.661Z,16.00
2023-11-07T16:17:48.711Z,18.37
2023-11-07T16:20:51.504Z,16.50
2023-11-07T16:23:59.882Z,17.87
2023-11-07T16:27:09.818Z,28.90
2023-11-07T16:30:15.375Z,12.57
2023-11-07T16:33:21.335Z,19.17
2023-11-07T16:36:27.235Z,18.97
2023-11-07T16:39:31.246Z,19.90
2023-11-07T16:42:33.625Z,15.87
2023-11-07T16:45:35.877Z,12.30
2023-11-07T16:48:50.967Z,11.67
2023-11-07T16:52:21.194Z,14.30
2023-11-07T16:55:24.379Z,15.37
2023-11-07T16:58:27.445Z,15.70
2023-11-07T17:01:31.811Z,19.67
2023-11-07T17:04:37.217Z,20.43
2023-11-07T17:07:40.683Z,17.40
2023-11-07T17:10:42.747Z,18.33
2023-11-07T17:13:44.988Z,14.50
2023-11-07T17:16:48.221Z,22.43
2023-11-07T17:19:51.274Z,11.90
2023-11-07T17:22:53.343Z,19.60
2023-11-07T17:25:56.320Z,13.53
2023-11-07T17:28:58.943Z,19.13
2023-11-07T17:32:01.200Z,11.80
2023-11-07T17:35:05.332Z,16.83
2023-11-07T17:38:10.908Z,13.27
2023-11-07T17:41:15.370Z,18.47
2023-11-07T17:44:22.193Z,33.17
2023-11-07T17:47:27.057Z,19.93
2023-11-07T17:50:30.251Z,20.33
2023-11-07T17:53:34.490Z,34.07
2023-11-07T17:56:37.076Z,29.43
2023-11-07T17:59:39.035Z,18.63
2023-11-07T18:02:41.363Z,18.77
2023-11-07T18:05:50.771Z,18.20
2023-11-07T18:08:54.265Z,21.00
2023-11-07T18:11:56.580Z,26.10
2023-11-07T18:14:59.173Z,20.20
2023-11-07T18:18:01.484Z,23.23
2023-11-07T18:21:03.866Z,16.27
2023-11-07T18:24:06.555Z,16.27
2023-11-07T18:27:08.839Z,36.53
2023-11-07T18:30:12.220Z,15.13
2023-11-07T18:33:14.542Z,13.73
2023-11-07T18:36:19.945Z,15.40
2023-11-07T18:39:23.539Z,13.33
2023-11-07T18:42:28.101Z,15.20
2023-11-07T18:45:32.802Z,10.37
2023-11-07T18:48:37.620Z,11.70
2023-11-07T18:51:40.213Z,12.40
2023-11-07T18:54:42.669Z,13.13
2023-11-07T18:57:45.329Z,10.50
2023-11-07T19:00:57.374Z,11.80
2023-11-07T19:03:59.955Z,13.37
2023-11-07T19:07:02.998Z,16.10
2023-11-07T19:10:08.391Z,11.33
2023-11-07T19:13:12.808Z,12.97
2023-11-07T19:16:18.378Z,12.03
2023-11-07T19:19:20.404Z,19.20
2023-11-07T19:22:24.000Z,13.50
2023-11-07T19:25:26.216Z,14.57
2023-11-07T19:28:55.614Z,20.63
2023-11-07T19:32:00.115Z,13.63
2023-11-07T19:35:02.471Z,14.10
2023-11-07T19:38:04.438Z,11.50
2023-11-07T19:41:06.820Z,13.67
2023-11-07T19:44:09.371Z,13.30
2023-11-07T19:47:14.416Z,13.03
2023-11-07T19:50:18.092Z,14.57
2023-11-07T19:53:20.475Z,13.93
2023-11-07T19:56:23.530Z,15.17
2023-11-07T19:59:26.091Z,18.67
2023-11-07T20:02:28.550Z,47.07
2023-11-07T20:05:34.535Z,22.17
2023-11-07T20:08:38.821Z,15.60
2023-11-07T20:11:41.192Z,14.37
2023-11-07T20:14:44.621Z,12.10
2023-11-07T20:17:47.178Z,14.63
2023-11-07T20:20:49.603Z,18.10
2023-11-07T20:23:57.189Z,15.90
2023-11-07T20:26:59.283Z,19.77
2023-11-07T20:30:07.032Z,16.80
2023-11-07T20:33:09.714Z,15.67
2023-11-07T20:36:17.175Z,14.97
2023-11-07T20:39:19.910Z,16.37
2023-11-07T20:42:23.117Z,11.93
2023-11-07T20:45:25.171Z,13.23
2023-11-07T20:48:39.366Z,9.10
2023-11-07T20:51:44.276Z,16.70
2023-11-07T20:54:47.822Z,16.03
